sensor_id;sensor_type;location;lat;lon;timestamp;pressure;altitude;pressure_sealevel;temperature;humidity
38558;BME280;24333;42.626;23.308;2023-04-29T00:53:39;70900.41;;;-148.95;73.14
38558;BME280;24333;42.626;23.308;2023-04-29T00:56:05;70892.09;;;-148.95;74.15
38558;BME280;24333;42.626;23.308;2023-04-29T00:58:32;70890.03;;;-148.95;73.99
38558;BME280;24333;42.626;23.308;2023-04-29T01:01:00;70890.03;;;-148.95;73.01
38558;BME280;24333;42.626;23.308;2023-04-29T11:45:18;69607.88;;;-148.95;32.01
38558;BME280;24333;42.626;23.308;2023-04-29T11:47:45;69632.78;;;-148.95;31.31
38558;BME280;24333;42.626;23.308;2023-04-29T11:50:11;69636.91;;;-148.95;32.29
38558;BME280;24333;42.626;23.308;2023-04-29T11:52:57;69645.22;;;-148.95;32.60
38558;BME280;24333;42.626;23.308;2023-04-29T11:55:23;69630.69;;;-148.95;33.41
38558;BME280;24333;42.626;23.308;2023-04-29T11:57:49;69626.53;;;-148.95;32.89
38558;BME280;24333;42.626;23.308;2023-04-29T12:00:40;69626.53;;;-148.95;32.58
38558;BME280;24333;42.626;23.308;2023-04-29T12:03:16;69618.25;;;-148.95;33.38
38558;BME280;24333;42.626;23.308;2023-04-29T12:05:51;69624.47;;;-148.95;32.29
38558;BME280;24333;42.626;23.308;2023-04-29T12:08:25;69616.19;;;-148.95;33.34
38558;BME280;24333;42.626;23.308;2023-04-29T12:11:25;69628.63;;;-148.95;32.81
38558;BME280;24333;42.626;23.308;2023-04-29T12:39:49;69446.09;;;-148.95;34.77
38558;BME280;24333;42.626;23.308;2023-04-29T12:42:15;69446.09;;;-148.95;34.29
38558;BME280;24333;42.626;23.308;2023-04-29T13:22:45;69452.31;;;-148.95;36.66
38558;BME280;24333;42.626;23.308;2023-04-29T13:25:11;69439.88;;;-148.95;35.38
38558;BME280;24333;42.626;23.308;2023-04-29T13:27:37;69437.78;;;-148.95;37.23
38558;BME280;24333;42.626;23.308;2023-04-29T13:30:12;69412.91;;;-148.95;35.65
38558;BME280;24333;42.626;23.308;2023-04-29T13:35:46;69452.31;;;-148.95;35.33
38558;BME280;24333;42.626;23.308;2023-04-29T13:38:15;69477.19;;;-148.95;36.34
38558;BME280;24333;42.626;23.308;2023-04-29T13:40:42;69454.38;;;-148.95;35.73
38558;BME280;24333;42.626;23.308;2023-04-29T13:43:09;69433.63;;;-148.95;35.12
38558;BME280;24333;42.626;23.308;2023-04-29T13:45:35;69433.63;;;-148.95;35.21
38558;BME280;24333;42.626;23.308;2023-04-29T13:48:00;69444.00;;;-148.95;36.00
38558;BME280;24333;42.626;23.308;2023-04-29T13:50:26;69454.38;;;-148.95;35.61
38558;BME280;24333;42.626;23.308;2023-04-29T13:52:53;69456.47;;;-148.95;37.12
38558;BME280;24333;42.626;23.308;2023-04-29T13:55:21;69454.38;;;-148.95;37.31
38558;BME280;24333;42.626;23.308;2023-04-29T13:57:46;69446.09;;;-148.95;36.55
38558;BME280;24333;42.626;23.308;2023-04-29T14:00:30;69450.22;;;-148.95;35.85
38558;BME280;24333;42.626;23.308;2023-04-29T14:02:55;69417.03;;;-148.95;36.07
38558;BME280;24333;42.626;23.308;2023-04-29T14:05:21;69404.59;;;-148.95;35.86
38558;BME280;24333;42.626;23.308;2023-04-29T14:07:46;69425.34;;;-148.95;35.61
38558;BME280;24333;42.626;23.308;2023-04-29T14:10:37;69423.28;;;-148.95;35.69
38558;BME280;24333;42.626;23.308;2023-04-29T14:13:08;69427.41;;;-148.95;36.32
38558;BME280;24333;42.626;23.308;2023-04-29T14:15:47;69412.91;;;-148.95;35.70
38558;BME280;24333;42.626;23.308;2023-04-29T14:18:12;69408.75;;;-148.95;35.61
38558;BME280;24333;42.626;23.308;2023-04-29T14:20:39;69408.75;;;-148.95;35.38
38558;BME280;24333;42.626;23.308;2023-04-29T14:23:05;69446.09;;;-148.95;35.42
38558;BME280;24333;42.626;23.308;2023-04-29T14:25:30;69431.56;;;-148.95;36.25
38558;BME280;24333;42.626;23.308;2023-04-29T14:27:56;69406.69;;;-148.95;35.64
38558;BME280;24333;42.626;23.308;2023-04-29T14:30:21;69394.22;;;-148.95;35.52
38558;BME280;24333;42.626;23.308;2023-04-29T14:32:47;69406.69;;;-148.95;35.57
38558;BME280;24333;42.626;23.308;2023-04-29T14:35:12;69431.56;;;-148.95;35.81
38558;BME280;24333;42.626;23.308;2023-04-29T14:37:38;69470.97;;;-148.95;36.19
38558;BME280;24333;42.626;23.308;2023-04-29T14:40:04;69466.81;;;-148.95;36.04
38558;BME280;24333;42.626;23.308;2023-04-29T14:42:30;69470.97;;;-148.95;36.42
38558;BME280;24333;42.626;23.308;2023-04-29T14:45:02;69450.22;;;-148.95;35.61
38558;BME280;24333;42.626;23.308;2023-04-29T14:47:28;69470.97;;;-148.95;36.77
38558;BME280;24333;42.626;23.308;2023-04-29T14:49:53;69491.72;;;-148.95;35.62
38558;BME280;24333;42.626;23.308;2023-04-29T14:52:18;69475.13;;;-148.95;35.91
38558;BME280;24333;42.626;23.308;2023-04-29T14:55:02;69462.69;;;-148.95;35.96
38558;BME280;24333;42.626;23.308;2023-04-29T14:57:35;69437.78;;;-148.95;35.60
38558;BME280;24333;42.626;23.308;2023-04-29T15:00:07;69390.09;;;-148.95;35.79
38558;BME280;24333;42.626;23.308;2023-04-29T15:02:32;69358.97;;;-148.95;35.39
38558;BME280;24333;42.626;23.308;2023-04-29T15:04:58;69346.53;;;-148.95;34.79
38558;BME280;24333;42.626;23.308;2023-04-29T15:07:23;69321.63;;;-148.95;35.34
38558;BME280;24333;42.626;23.308;2023-04-29T15:09:49;69294.69;;;-148.95;35.47
38558;BME280;24333;42.626;23.308;2023-04-29T15:12:14;69263.56;;;-148.95;35.06
38558;BME280;24333;42.626;23.308;2023-04-29T15:14:42;69253.19;;;-148.95;34.68
38558;BME280;24333;42.626;23.308;2023-04-29T15:17:07;69242.81;;;-148.95;34.24
38558;BME280;24333;42.626;23.308;2023-04-29T15:19:33;69255.25;;;-148.95;33.94
38558;BME280;24333;42.626;23.308;2023-04-29T15:21:59;69269.78;;;-148.95;34.14
38558;BME280;24333;42.626;23.308;2023-04-29T15:24:25;69313.34;;;-148.95;34.24
38558;BME280;24333;42.626;23.308;2023-04-29T15:26:51;69329.94;;;-148.95;34.26
38558;BME280;24333;42.626;23.308;2023-04-29T15:29:25;69344.44;;;-148.95;34.77
38558;BME280;24333;42.626;23.308;2023-04-29T15:31:51;69350.69;;;-148.95;35.65
38558;BME280;24333;42.626;23.308;2023-04-29T15:34:16;69371.41;;;-148.95;34.96
38558;BME280;24333;42.626;23.308;2023-04-29T15:36:41;69396.31;;;-148.95;35.26
38558;BME280;24333;42.626;23.308;2023-04-29T15:39:38;69417.03;;;-148.95;35.12
38558;BME280;24333;42.626;23.308;2023-04-29T15:43:16;69470.97;;;-148.95;35.96
38558;BME280;24333;42.626;23.308;2023-04-29T15:45:47;69470.97;;;-148.95;36.68
38558;BME280;24333;42.626;23.308;2023-04-29T15:48:13;69479.28;;;-148.95;36.45
38558;BME280;24333;42.626;23.308;2023-04-29T15:50:38;69487.56;;;-148.95;36.76
38558;BME280;24333;42.626;23.308;2023-04-29T15:53:03;69506.25;;;-148.95;36.50
38558;BME280;24333;42.626;23.308;2023-04-29T15:55:29;69524.91;;;-148.95;37.14
38558;BME280;24333;42.626;23.308;2023-04-29T15:57:55;69524.91;;;-148.95;37.39
38558;BME280;24333;42.626;23.308;2023-04-29T16:00:28;69539.44;;;-148.95;37.19
38558;BME280;24333;42.626;23.308;2023-04-29T16:02:56;69537.34;;;-148.95;37.26
38558;BME280;24333;42.626;23.308;2023-04-29T16:05:22;69537.34;;;-148.95;37.40
38558;BME280;24333;42.626;23.308;2023-04-29T16:07:47;69549.78;;;-148.95;37.33
38558;BME280;24333;42.626;23.308;2023-04-29T16:10:34;69549.78;;;-148.95;37.85
38558;BME280;24333;42.626;23.308;2023-04-29T16:13:32;69553.94;;;-148.95;37.97
38558;BME280;24333;42.626;23.308;2023-04-29T16:15:57;69551.88;;;-148.95;38.02
38558;BME280;24333;42.626;23.308;2023-04-29T16:18:23;69558.09;;;-148.95;38.61
38558;BME280;24333;42.626;23.308;2023-04-29T16:20:50;69566.38;;;-148.95;38.27
38558;BME280;24333;42.626;23.308;2023-04-29T16:23:16;69570.53;;;-148.95;38.71
38558;BME280;24333;42.626;23.308;2023-04-29T16:25:41;69572.63;;;-148.95;39.77
38558;BME280;24333;42.626;23.308;2023-04-29T16:28:17;69562.25;;;-148.95;42.10
38558;BME280;24333;42.626;23.308;2023-04-29T16:30:43;69570.53;;;-148.95;43.42
38558;BME280;24333;42.626;23.308;2023-04-29T16:33:08;69587.13;;;-148.95;43.10
38558;BME280;24333;42.626;23.308;2023-04-29T16:35:35;69595.44;;;-148.95;44.91
38558;BME280;24333;42.626;23.308;2023-04-29T16:38:00;69616.19;;;-148.95;46.59
38558;BME280;24333;42.626;23.308;2023-04-29T16:43:54;69649.38;;;-148.95;49.69
38558;BME280;24333;42.626;23.308;2023-04-29T16:46:20;69672.19;;;-148.95;52.82
38558;BME280;24333;42.626;23.308;2023-04-29T16:48:45;69695.00;;;-148.95;55.24
38558;BME280;24333;42.626;23.308;2023-04-29T16:51:11;69703.28;;;-148.95;63.23
38558;BME280;24333;42.626;23.308;2023-04-29T16:53:36;69724.03;;;-148.95;68.86
38558;BME280;24333;42.626;23.308;2023-04-29T16:56:02;69730.25;;;-148.95;73.21
38558;BME280;24333;42.626;23.308;2023-04-29T16:58:36;69767.59;;;-148.95;69.16
38558;BME280;24333;42.626;23.308;2023-04-29T17:01:02;69784.19;;;-148.95;66.89
38558;BME280;24333;42.626;23.308;2023-04-29T17:03:29;69800.78;;;-148.95;69.37
38558;BME280;24333;42.626;23.308;2023-04-29T17:05:54;69813.22;;;-148.95;70.35
38558;BME280;24333;42.626;23.308;2023-04-29T17:08:54;69827.75;;;-148.95;74.03
38558;BME280;24333;42.626;23.308;2023-04-29T17:11:57;69854.72;;;-148.95;67.04
38558;BME280;24333;42.626;23.308;2023-04-29T18:20:14;70051.81;;;-148.95;100.00
38558;BME280;24333;42.626;23.308;2023-04-29T18:22:39;70055.94;;;-148.95;100.00
38558;BME280;24333;42.626;23.308;2023-04-29T18:25:05;70051.81;;;-148.95;100.00
38558;BME280;24333;42.626;23.308;2023-04-29T18:27:31;70051.81;;;-148.95;100.00
38558;BME280;24333;42.626;23.308;2023-04-29T18:29:56;70060.09;;;-148.95;100.00
38558;BME280;24333;42.626;23.308;2023-04-29T18:39:06;70051.81;;;-148.95;100.00
38558;BME280;24333;42.626;23.308;2023-04-29T18:41:31;70045.56;;;-148.95;100.00
38558;BME280;24333;42.626;23.308;2023-04-29T18:43:57;70039.34;;;-148.95;100.00
38558;BME280;24333;42.626;23.308;2023-04-29T18:46:23;70035.19;;;-148.95;100.00
38558;BME280;24333;42.626;23.308;2023-04-29T18:48:48;70039.34;;;-148.95;100.00
38558;BME280;24333;42.626;23.308;2023-04-29T18:51:14;70035.19;;;-148.95;100.00
38558;BME280;24333;42.626;23.308;2023-04-29T20:06:17;70012.38;;;-148.95;100.00
38558;BME280;24333;42.626;23.308;2023-04-29T20:08:42;70018.59;;;-148.95;100.00
38558;BME280;24333;42.626;23.308;2023-04-29T20:11:08;70031.06;;;-148.95;100.00
38558;BME280;24333;42.626;23.308;2023-04-29T20:13:38;70026.91;;;-148.95;100.00
38558;BME280;24333;42.626;23.308;2023-04-29T20:16:04;70031.06;;;-148.95;100.00
38558;BME280;24333;42.626;23.308;2023-04-29T20:18:31;70039.34;;;-148.95;100.00
38558;BME280;24333;42.626;23.308;2023-04-29T22:38:59;70159.69;;;-148.95;100.00
38558;BME280;24333;42.626;23.308;2023-04-29T22:41:25;70159.69;;;-148.95;100.00
38558;BME280;24333;42.626;23.308;2023-04-29T22:43:51;70165.91;;;-148.95;100.00
38558;BME280;24333;42.626;23.308;2023-04-29T22:46:21;70165.91;;;-148.95;100.00
38558;BME280;24333;42.626;23.308;2023-04-29T22:48:47;70163.81;;;-148.95;100.00
38558;BME280;24333;42.626;23.308;2023-04-29T22:51:13;70172.13;;;-148.95;100.00
38558;BME280;24333;42.626;23.308;2023-04-29T22:54:01;70180.44;;;-148.95;100.00
38558;BME280;24333;42.626;23.308;2023-04-29T22:56:27;70184.56;;;-148.95;100.00
38558;BME280;24333;42.626;23.308;2023-04-29T22:58:53;70192.88;;;-148.95;100.00
38558;BME280;24333;42.626;23.308;2023-04-29T23:01:19;70207.41;;;-148.95;100.00
38558;BME280;24333;42.626;23.308;2023-04-29T23:25:55;70263.41;;;-148.95;100.00
38558;BME280;24333;42.626;23.308;2023-04-29T23:28:21;70267.56;;;-148.95;100.00
38558;BME280;24333;42.626;23.308;2023-04-29T23:30:48;70275.84;;;-148.95;100.00
38558;BME280;24333;42.626;23.308;2023-04-29T23:39:57;70288.31;;;-148.95;100.00
38558;BME280;24333;42.626;23.308;2023-04-29T23:42:22;70280.00;;;-148.95;100.00
38558;BME280;24333;42.626;23.308;2023-04-29T23:44:48;70288.31;;;-148.95;100.00
38558;BME280;24333;42.626;23.308;2023-04-29T23:47:14;70288.31;;;-148.95;100.00
38558;BME280;24333;42.626;23.308;2023-04-29T23:49:39;70290.38;;;-148.95;100.00
38558;BME280;24333;42.626;23.308;2023-04-29T23:52:05;70296.59;;;-148.95;100.00
38558;BME280;24333;42.626;23.308;2023-04-29T23:57:07;70300.75;;;-148.95;100.00
38558;BME280;24333;42.626;23.308;2023-04-29T23:59:33;70313.19;;;-148.95;100.00
